Terminal Aerodrome Forecast
Issued by NWS North Platte, NE

Home | Current Version | Previous Version | Text Only | Print | Product List | Glossary On
Versions: 1 2 3 4 5 6 7 8 9 10 11 12 13 14 15 16 17 18
919
FTUS43 KLBF 282323
TAFLBF
TAF
KLBF 282323Z 2900/2924 06007KT P6SM FEW015 SCT050 SCT100
     FM290600 VRB04KT P6SM FEW050 SCT100 BKN250
     FM290900 VRB02KT 4SM BR SCT010 BKN250
     FM291400 10005KT P6SM FEW015 SCT250
     FM291700 18007KT P6SM BKN050=

USA.gov is the U.S. government's official web portal to all federal, state and local government web resources and services.